Terminal Aerodrome Forecast
Issued by NWS

Current Version | Previous Version | Graphics & Text | Print | Product List | Glossary On
Versions: 1 2 3 4 5 6 7 8 9 10 11 12 13 14 15 16
915
FTUS41 KPBZ 181736
TAFMGW
TAF
KMGW 181736Z 1818/1918 18011KT 6SM -SHRA OVC035 WS020/22045KT
     FM190000 19014G31KT P6SM SHRA OVC040
     FM190400 21016G42KT 4SM -SHRA OVC025
     FM191000 28014G31KT P6SM VCSH OVC015=

USA.gov is the U.S. government's official web portal to all federal, state and local government web resources and services.